Time;durP1;ratioP1;P1;durP2;ratioP2;P2;SDS_P1;SDS_P2;PMS_P1;PMS_P2;Temp;Humidity;BMP_temperature;BMP_pressure;BME280_temperature;BME280_humidity;BME280_pressure;Samples;Min_cycle;Max_cycle;Signal;HPM_P1;HPM_P2
2022/08/14 00:01:01;;;;;;;3.53;2.40;;;26.10;62.30;;;;;;4066236;29;20032;-62
2022/08/14 00:03:01;;;;;;;6.78;2.95;;;26.00;62.10;;;;;;4065860;29;20028;-63
2022/08/14 00:05:03;;;;;;;2.50;2.30;;;26.10;63.20;;;;;;4066958;29;20399;-63
2022/08/14 00:07:04;;;;;;;3.72;2.65;;;26.10;63.10;;;;;;4066285;29;20056;-63
2022/08/14 00:09:05;;;;;;;5.57;2.60;;;26.10;62.30;;;;;;4066845;29;20068;-62
2022/08/14 00:11:05;;;;;;;4.22;2.78;;;26.00;62.10;;;;;;4065901;29;20028;-63
2022/08/14 00:13:07;;;;;;;3.20;2.80;;;25.90;62.40;;;;;;4065945;29;20031;-63
2022/08/14 00:15:18;;;;;;;3.47;2.90;;;25.80;62.70;;;;;;4066455;29;20376;-63
2022/08/14 00:17:19;;;;;;;5.97;3.00;;;25.70;63.00;;;;;;4066748;29;20032;-62
2022/08/14 00:19:19;;;;;;;3.47;2.88;;;25.70;63.20;;;;;;4066828;29;21187;-63
2022/08/14 00:21:20;;;;;;;3.88;2.65;;;25.60;63.10;;;;;;4065766;29;20041;-63
2022/08/14 00:23:21;;;;;;;3.17;2.55;;;25.60;64.10;;;;;;4066007;29;20052;-62
2022/08/14 00:25:21;;;;;;;3.60;2.53;;;25.70;65.20;;;;;;4065856;29;20032;-63
2022/08/14 00:27:22;;;;;;;2.92;2.30;;;25.70;64.90;;;;;;4066893;29;20062;-63
2022/08/14 00:29:22;;;;;;;3.42;2.63;;;25.70;64.70;;;;;;4066645;29;20351;-64
2022/08/14 00:31:23;;;;;;;2.70;2.28;;;25.80;63.80;;;;;;4065456;29;20036;-63
2022/08/14 00:33:25;;;;;;;4.05;2.60;;;25.80;63.70;;;;;;4065743;29;20036;-63
2022/08/14 00:35:26;;;;;;;3.45;2.67;;;25.80;63.70;;;;;;4066203;29;20043;-63
2022/08/14 00:37:28;;;;;;;2.92;2.45;;;25.80;64.40;;;;;;4066692;29;20036;-63
2022/08/14 00:39:28;;;;;;;2.83;2.30;;;25.80;65.30;;;;;;4066391;29;20044;-63
2022/08/14 00:41:30;;;;;;;2.80;2.42;;;25.80;64.70;;;;;;4065079;29;20284;-63
2022/08/14 00:43:32;;;;;;;3.85;2.30;;;25.80;65.00;;;;;;4065936;29;20036;-63
2022/08/14 00:45:33;;;;;;;4.10;2.15;;;25.80;65.20;;;;;;4066089;29;20418;-63
2022/08/14 00:47:34;;;;;;;5.15;2.60;;;25.80;65.90;;;;;;4066472;29;20032;-62
2022/08/14 00:49:35;;;;;;;2.90;2.60;;;25.80;65.50;;;;;;4066480;29;20032;-62
2022/08/14 00:51:36;;;;;;;3.30;2.47;;;25.80;65.40;;;;;;4065223;29;20044;-62
2022/08/14 00:53:38;;;;;;;3.70;2.50;;;25.70;65.50;;;;;;4065687;29;20480;-62
2022/08/14 00:55:40;;;;;;;3.60;2.35;;;25.80;65.10;;;;;;4065660;29;20032;-62
2022/08/14 00:57:41;;;;;;;2.65;2.40;;;25.80;65.30;;;;;;4066361;29;20127;-62
2022/08/14 00:59:42;;;;;;;3.88;2.42;;;25.70;65.30;;;;;;4066372;29;20119;-62
2022/08/14 01:01:44;;;;;;;2.42;2.08;;;25.70;65.50;;;;;;4064787;29;20116;-62
2022/08/14 01:03:45;;;;;;;3.67;2.42;;;25.70;65.90;;;;;;4065192;29;20112;-64
2022/08/14 01:05:48;;;;;;;4.22;2.65;;;25.70;65.20;;;;;;4065722;29;20036;-63
2022/08/14 01:07:56;;;;;;;3.42;2.35;;;25.60;64.80;;;;;;4065993;29;20048;-62
2022/08/14 01:10:06;;;;;;;2.88;2.53;;;25.60;64.80;;;;;;4065845;29;20104;-62
2022/08/14 01:12:08;;;;;;;2.85;2.50;;;25.60;64.60;;;;;;4065230;29;20025;-62
2022/08/14 01:14:08;;;;;;;3.40;2.80;;;25.50;64.10;;;;;;4065150;29;20373;-63
2022/08/14 01:16:13;;;;;;;3.05;2.75;;;25.40;64.40;;;;;;4065332;29;20047;-62
2022/08/14 01:23:12;;;;;;;2.90;2.53;;;25.30;66.90;;;;;;4032237;29;20042;-62
2022/08/14 01:25:14;;;;;;;3.25;2.88;;;25.30;67.00;;;;;;4065093;29;20495;-62
2022/08/14 01:27:20;;;;;;;2.58;2.38;;;25.30;67.30;;;;;;4049971;29;20416;-63
2022/08/14 01:29:22;;;;;;;3.15;2.45;;;25.30;67.40;;;;;;4050215;29;20029;-62
2022/08/14 01:31:25;;;;;;;3.53;2.67;;;25.30;67.40;;;;;;4049041;29;20131;-62
2022/08/14 01:33:28;;;;;;;2.40;2.13;;;25.30;66.60;;;;;;4064816;29;20024;-63
2022/08/14 01:35:29;;;;;;;2.92;2.60;;;25.20;66.40;;;;;;4065254;29;20123;-63
2022/08/14 01:37:30;;;;;;;4.13;2.58;;;25.20;66.00;;;;;;4065735;29;20063;-62
2022/08/14 01:39:31;;;;;;;3.38;2.83;;;25.20;68.00;;;;;;4065432;29;20044;-62
2022/08/14 01:41:32;;;;;;;3.85;2.80;;;25.10;67.80;;;;;;4064038;29;20032;-62
2022/08/14 01:43:52;;;;;;;2.65;2.45;;;25.10;67.70;;;;;;4065236;29;20051;-62
2022/08/14 01:45:53;;;;;;;3.00;2.70;;;25.10;67.10;;;;;;4064631;29;20036;-62
2022/08/14 01:47:55;;;;;;;4.05;2.42;;;25.10;66.80;;;;;;4065757;29;20032;-62
2022/08/14 01:49:55;;;;;;;3.37;2.83;;;25.00;66.60;;;;;;4065297;29;20031;-63
2022/08/14 01:51:56;;;;;;;3.35;2.60;;;24.80;66.20;;;;;;4064064;29;20424;-63
2022/08/14 01:54:08;;;;;;;3.50;2.67;;;24.70;66.90;;;;;;4064898;29;20040;-63
2022/08/14 01:56:09;;;;;;;2.95;2.65;;;24.60;68.10;;;;;;4064940;29;20066;-62
2022/08/14 01:58:14;;;;;;;3.50;2.63;;;24.50;68.50;;;;;;4065364;29;20028;-62
2022/08/14 02:00:15;;;;;;;2.83;2.53;;;24.50;68.90;;;;;;4064547;29;20048;-63
2022/08/14 02:02:16;;;;;;;3.03;2.72;;;24.50;68.70;;;;;;4048813;29;20481;-63
2022/08/14 02:04:20;;;;;;;2.92;2.63;;;24.50;68.60;;;;;;4048962;29;20052;-62
2022/08/14 02:06:21;;;;;;;3.75;3.05;;;24.50;69.60;;;;;;4049539;29;21005;-62
2022/08/14 02:08:22;;;;;;;3.47;2.65;;;24.50;69.70;;;;;;4049704;29;20054;-62
2022/08/14 02:10:22;;;;;;;8.95;2.42;;;24.50;69.50;;;;;;4048769;29;20052;-62
2022/08/14 02:12:23;;;;;;;2.55;2.20;;;24.50;69.20;;;;;;4048840;29;20518;-62
2022/08/14 02:14:24;;;;;;;3.63;3.08;;;24.50;69.60;;;;;;4051339;29;20068;-62
2022/08/14 02:16:28;;;;;;;2.78;2.50;;;24.50;69.90;;;;;;4051535;29;20588;-62
2022/08/14 02:18:29;;;;;;;3.28;2.70;;;24.50;69.20;;;;;;4046127;29;20040;-63
2022/08/14 02:20:32;;;;;;;3.10;2.80;;;24.50;69.60;;;;;;4048626;29;20056;-62
2022/08/14 02:22:33;;;;;;;3.28;2.80;;;24.40;69.10;;;;;;4048355;29;20040;-62
2022/08/14 02:24:34;;;;;;;3.35;2.95;;;24.50;69.60;;;;;;4048929;29;20084;-62
2022/08/14 02:26:38;;;;;;;4.93;2.83;;;24.40;69.90;;;;;;4048824;29;20037;-62
2022/08/14 02:28:38;;;;;;;4.57;3.28;;;24.40;69.50;;;;;;4049430;29;20108;-62
2022/08/14 02:30:39;;;;;;;3.60;3.00;;;24.40;70.10;;;;;;4049060;29;20484;-62
2022/08/14 02:32:40;;;;;;;3.00;2.70;;;24.40;70.10;;;;;;4048109;29;20051;-62
2022/08/14 02:34:41;;;;;;;4.30;2.92;;;24.40;70.30;;;;;;4049569;29;20036;-62
2022/08/14 02:36:42;;;;;;;3.90;2.83;;;24.40;70.20;;;;;;4049032;29;20654;-62
2022/08/14 02:38:43;;;;;;;4.18;3.53;;;24.30;70.70;;;;;;4049313;29;20071;-62
2022/08/14 02:40:44;;;;;;;3.75;2.70;;;24.30;71.00;;;;;;4048347;29;20049;-62
2022/08/14 02:42:46;;;;;;;3.85;2.88;;;24.30;70.00;;;;;;4048262;29;20692;-62
2022/08/14 02:44:48;;;;;;;4.55;2.80;;;24.30;71.00;;;;;;4064813;29;20492;-63
2022/08/14 02:46:52;;;;;;;3.35;2.70;;;24.30;70.10;;;;;;4064121;29;20079;-62
2022/08/14 02:48:53;;;;;;;2.85;2.45;;;24.30;71.40;;;;;;4064504;29;20028;-62
2022/08/14 02:50:54;;;;;;;4.07;2.70;;;24.30;71.50;;;;;;4063984;29;20550;-62
2022/08/14 02:52:54;;;;;;;4.40;3.22;;;24.20;69.80;;;;;;4063652;29;20500;-62
2022/08/14 02:54:55;;;;;;;3.95;3.20;;;24.20;70.20;;;;;;4064679;29;20037;-62
2022/08/14 02:56:58;;;;;;;3.47;2.80;;;24.20;70.40;;;;;;4063671;29;20032;-64
2022/08/14 02:59:00;;;;;;;3.20;2.80;;;24.10;70.80;;;;;;4064496;29;20044;-63
2022/08/14 03:01:01;;;;;;;4.55;3.00;;;24.10;71.20;;;;;;4046718;29;20037;-62
2022/08/14 03:03:03;;;;;;;3.88;2.80;;;24.10;72.10;;;;;;4063397;29;20040;-62
2022/08/14 03:05:04;;;;;;;3.77;3.00;;;24.10;71.30;;;;;;4063946;29;20032;-63
2022/08/14 03:07:05;;;;;;;3.35;2.63;;;24.00;71.60;;;;;;4063711;29;20288;-62
2022/08/14 03:09:06;;;;;;;5.88;3.20;;;24.00;71.70;;;;;;4063344;29;20972;-62
2022/08/14 03:11:10;;;;;;;3.97;3.03;;;24.00;72.50;;;;;;4047200;29;20056;-62
2022/08/14 03:13:11;;;;;;;3.75;3.03;;;24.00;72.90;;;;;;4053944;29;20070;-62
2022/08/14 03:15:12;;;;;;;3.97;3.03;;;23.90;71.50;;;;;;4064047;29;20032;-63
2022/08/14 03:17:14;;;;;;;3.03;2.72;;;23.90;71.80;;;;;;4064153;29;20064;-62
2022/08/14 03:19:16;;;;;;;3.58;2.95;;;23.90;72.20;;;;;;4064544;29;20174;-62
2022/08/14 03:21:19;;;;;;;3.83;2.85;;;23.80;71.30;;;;;;4062988;29;20078;-63
2022/08/14 03:23:20;;;;;;;5.53;3.17;;;23.80;70.70;;;;;;4063444;29;20039;-62
2022/08/14 03:25:21;;;;;;;3.53;3.10;;;23.80;71.00;;;;;;4063587;29;20377;-62
2022/08/14 03:27:22;;;;;;;6.83;2.83;;;23.70;71.80;;;;;;4064268;29;20079;-62
2022/08/14 03:29:23;;;;;;;4.00;3.13;;;23.60;72.80;;;;;;4063831;29;20743;-62
2022/08/14 03:31:24;;;;;;;6.57;3.00;;;23.40;73.50;;;;;;4062613;29;20069;-62
2022/08/14 03:33:26;;;;;;;5.38;3.05;;;23.30;74.10;;;;;;4063500;29;20031;-62
2022/08/14 03:35:29;;;;;;;4.93;3.47;;;23.20;74.70;;;;;;4046999;29;20054;-62
2022/08/14 03:37:29;;;;;;;4.15;3.17;;;23.10;75.00;;;;;;4064222;29;20066;-63
2022/08/14 03:39:30;;;;;;;3.75;3.13;;;23.00;75.50;;;;;;4063851;29;20033;-62
2022/08/14 03:41:31;;;;;;;3.83;3.20;;;23.00;75.40;;;;;;4062462;29;20032;-62
2022/08/14 03:43:32;;;;;;;4.82;3.15;;;23.00;75.60;;;;;;4063452;29;20123;-62
2022/08/14 03:45:38;;;;;;;3.60;3.20;;;22.90;75.70;;;;;;4063265;29;20067;-62
2022/08/14 03:47:39;;;;;;;3.63;3.08;;;22.90;76.30;;;;;;4063628;29;20432;-62
2022/08/14 03:49:43;;;;;;;4.47;2.75;;;22.90;76.60;;;;;;4063919;29;20036;-62
2022/08/14 03:51:44;;;;;;;3.72;3.15;;;22.90;78.10;;;;;;4061540;29;20042;-62
2022/08/14 03:53:46;;;;;;;4.40;3.47;;;22.80;76.90;;;;;;4063231;29;20051;-62
2022/08/14 03:55:46;;;;;;;5.27;3.73;;;22.70;77.60;;;;;;4063327;29;20028;-62
2022/08/14 03:57:47;;;;;;;5.47;3.88;;;22.20;79.20;;;;;;4063363;29;20282;-62
2022/08/14 03:59:48;;;;;;;4.43;3.95;;;21.80;80.30;;;;;;4063862;29;20091;-62
2022/08/14 04:01:50;;;;;;;5.15;4.28;;;21.60;81.60;;;;;;4061409;29;20590;-62
2022/08/14 04:03:53;;;;;;;6.05;3.75;;;21.40;81.80;;;;;;4076471;29;20611;-62
2022/08/14 04:05:54;;;;;;;5.68;3.50;;;21.40;82.20;;;;;;4062051;29;20048;-62
2022/08/14 04:07:55;;;;;;;4.65;3.80;;;21.30;82.70;;;;;;4061355;29;20119;-62
2022/08/14 04:09:55;;;;;;;5.85;3.70;;;21.30;82.90;;;;;;4061518;29;20480;-62
2022/08/14 04:11:56;;;;;;;3.97;3.42;;;21.40;82.90;;;;;;4062535;29;20391;-62
2022/08/14 04:13:56;;;;;;;4.90;3.47;;;21.40;83.20;;;;;;4062333;29;20044;-62
2022/08/14 04:15:58;;;;;;;4.35;3.70;;;21.50;82.50;;;;;;4062491;29;20055;-62
2022/08/14 04:18:08;;;;;;;4.40;4.00;;;21.60;82.10;;;;;;4065930;29;20123;-62
2022/08/14 04:20:11;;;;;;;4.07;3.50;;;21.60;81.60;;;;;;4064266;29;20131;-63
2022/08/14 04:22:12;;;;;;;4.93;3.70;;;21.60;81.70;;;;;;4065367;29;20036;-62
2022/08/14 04:24:13;;;;;;;3.92;3.50;;;21.60;82.00;;;;;;4065364;29;20094;-62
2022/08/14 04:26:15;;;;;;;7.32;3.75;;;21.50;82.10;;;;;;4065715;29;20115;-62
2022/08/14 04:28:16;;;;;;;7.40;4.38;;;21.60;82.40;;;;;;4067350;29;20044;-62
2022/08/14 04:30:16;;;;;;;4.13;3.33;;;21.60;82.90;;;;;;4064396;29;20382;-62
2022/08/14 04:32:18;;;;;;;4.18;3.65;;;21.70;82.60;;;;;;4065400;29;20387;-64
2022/08/14 04:34:18;;;;;;;4.28;3.47;;;21.70;82.20;;;;;;4064724;29;20063;-62
2022/08/14 04:36:19;;;;;;;4.50;3.25;;;21.80;81.60;;;;;;4064535;29;20119;-63
2022/08/14 04:45:22;;;;;;;5.55;3.72;;;21.90;81.70;;;;;;4065385;29;20051;-63
2022/08/14 04:49:41;;;;;;;4.55;3.47;;;22.00;81.90;;;;;;4066163;29;20040;-62
2022/08/14 04:51:42;;;;;;;3.90;3.45;;;22.00;81.80;;;;;;4064285;29;20040;-62
2022/08/14 04:53:46;;;;;;;4.90;3.80;;;22.00;82.10;;;;;;4064537;29;20043;-62
2022/08/14 04:55:48;;;;;;;4.72;3.75;;;22.10;81.80;;;;;;4065425;29;20056;-62
2022/08/14 04:57:49;;;;;;;4.15;3.40;;;22.10;81.70;;;;;;4065358;29;20044;-63
2022/08/14 04:59:51;;;;;;;4.20;3.35;;;22.20;81.80;;;;;;4065949;29;20039;-62
2022/08/14 05:01:52;;;;;;;4.60;3.17;;;22.20;82.20;;;;;;4065937;29;20047;-62
2022/08/14 05:03:54;;;;;;;4.85;3.80;;;22.20;82.20;;;;;;4070074;29;20044;-62
2022/08/14 05:05:57;;;;;;;5.15;3.92;;;22.30;81.40;;;;;;4064840;29;20032;-62
2022/08/14 05:08:10;;;;;;;4.60;3.70;;;22.30;80.50;;;;;;4067195;29;20099;-62
2022/08/14 05:10:11;;;;;;;4.90;4.10;;;22.40;80.10;;;;;;4070507;29;20039;-63
2022/08/14 05:12:12;;;;;;;4.50;3.97;;;22.30;80.30;;;;;;4068948;29;20039;-62
2022/08/14 05:14:12;;;;;;;5.53;4.15;;;22.40;80.80;;;;;;4069467;29;20028;-62
2022/08/14 05:16:13;;;;;;;4.25;3.85;;;22.30;81.80;;;;;;4074988;29;20035;-62
2022/08/14 05:18:19;;;;;;;4.38;3.75;;;22.40;81.20;;;;;;4069126;29;20028;-62
2022/08/14 05:20:20;;;;;;;6.07;4.38;;;22.30;81.60;;;;;;4068240;29;20055;-62
2022/08/14 05:22:20;;;;;;;5.70;4.15;;;22.30;82.90;;;;;;4065571;29;20039;-62
2022/08/14 05:24:21;;;;;;;4.95;4.28;;;22.20;82.70;;;;;;4065423;29;20055;-63
2022/08/14 05:26:21;;;;;;;5.43;3.85;;;22.20;83.10;;;;;;4067215;29;20088;-62
2022/08/14 05:28:25;;;;;;;5.18;4.25;;;22.20;83.70;;;;;;4063884;29;20044;-62
2022/08/14 05:30:26;;;;;;;5.32;4.10;;;22.20;84.00;;;;;;4065453;29;20043;-62
2022/08/14 05:32:27;;;;;;;4.85;3.75;;;22.20;84.10;;;;;;4065088;29;20098;-62
2022/08/14 05:34:29;;;;;;;5.38;4.30;;;22.30;84.20;;;;;;4065169;29;20032;-62
2022/08/14 05:36:29;;;;;;;5.18;4.05;;;22.30;84.70;;;;;;4067170;29;20067;-63
2022/08/14 05:38:35;;;;;;;5.47;4.30;;;22.40;84.60;;;;;;4068110;29;20039;-62
2022/08/14 05:40:36;;;;;;;4.95;3.92;;;22.40;84.80;;;;;;4069991;29;20039;-62
2022/08/14 05:42:37;;;;;;;6.75;4.65;;;22.40;85.50;;;;;;4064297;29;20044;-62
2022/08/14 05:44:37;;;;;;;4.78;4.13;;;22.40;85.30;;;;;;4068644;29;20055;-64
2022/08/14 05:46:38;;;;;;;4.72;4.13;;;22.50;85.20;;;;;;4067832;29;20040;-65
2022/08/14 05:48:39;;;;;;;6.25;4.30;;;22.50;85.80;;;;;;4061790;29;20046;-65
2022/08/14 05:50:39;;;;;;;7.03;4.68;;;22.60;85.00;;;;;;4061864;29;20088;-65
2022/08/14 05:52:40;;;;;;;5.60;3.83;;;22.70;85.50;;;;;;4060452;29;20111;-64
2022/08/14 05:54:41;;;;;;;5.55;4.63;;;22.80;84.80;;;;;;4061765;29;20496;-65
2022/08/14 05:56:43;;;;;;;4.57;3.70;;;22.90;86.50;;;;;;4061994;29;20028;-65
2022/08/14 05:58:44;;;;;;;4.95;4.13;;;22.90;85.60;;;;;;4055208;29;20040;-65
2022/08/14 06:00:45;;;;;;;5.07;4.25;;;23.00;84.60;;;;;;4059198;29;20106;-65
2022/08/14 06:02:46;;;;;;;5.72;4.10;;;23.00;85.50;;;;;;4061058;29;20040;-65
2022/08/14 06:04:47;;;;;;;5.90;4.55;;;23.10;84.40;;;;;;4062785;29;20032;-65
2022/08/14 06:06:47;;;;;;;5.63;4.78;;;23.10;85.30;;;;;;4060365;29;20047;-65
2022/08/14 06:08:48;;;;;;;10.50;5.68;;;23.20;84.30;;;;;;4063286;29;20032;-67
2022/08/14 06:10:50;;;;;;;6.22;4.40;;;23.20;83.90;;;;;;4061360;29;25080;-65
2022/08/14 06:12:51;;;;;;;9.45;5.32;;;23.30;84.00;;;;;;4060867;29;20114;-65
2022/08/14 06:14:51;;;;;;;7.07;5.38;;;23.30;83.60;;;;;;4059278;29;20071;-65
2022/08/14 06:16:52;;;;;;;6.13;4.35;;;23.40;83.70;;;;;;4061410;29;20043;-65
2022/08/14 06:18:54;;;;;;;10.27;5.05;;;23.40;83.90;;;;;;4061837;29;20047;-65
2022/08/14 06:20:55;;;;;;;7.07;5.00;;;23.40;83.90;;;;;;4063363;29;20092;-65
2022/08/14 06:22:56;;;;;;;5.97;4.97;;;23.50;83.80;;;;;;4059993;29;20032;-65
2022/08/14 06:24:57;;;;;;;6.22;5.03;;;23.60;83.70;;;;;;4062771;29;20115;-65
2022/08/14 06:26:57;;;;;;;7.00;4.78;;;23.70;83.80;;;;;;4061395;29;20047;-65
2022/08/14 06:28:58;;;;;;;6.60;4.65;;;23.70;83.80;;;;;;4068234;29;20570;-65
2022/08/14 06:30:59;;;;;;;7.63;4.90;;;23.80;83.40;;;;;;4060928;29;20032;-65
2022/08/14 06:33:00;;;;;;;5.63;4.55;;;23.90;83.60;;;;;;4060908;29;20792;-66
2022/08/14 06:35:03;;;;;;;5.65;4.22;;;23.90;83.50;;;;;;4062314;29;20599;-66
2022/08/14 06:37:04;;;;;;;8.63;5.00;;;24.00;84.10;;;;;;4043374;29;20472;-65
2022/08/14 06:39:06;;;;;;;7.35;5.13;;;24.20;83.50;;;;;;4063559;29;20036;-65
2022/08/14 06:41:06;;;;;;;6.28;4.47;;;24.30;83.70;;;;;;4060636;29;20036;-66
2022/08/14 06:43:13;;;;;;;5.93;4.88;;;24.60;83.20;;;;;;4059795;29;20031;-65
2022/08/14 06:45:13;;;;;;;5.18;4.38;;;25.00;82.30;;;;;;4061522;29;20040;-66
2022/08/14 06:47:14;;;;;;;6.65;4.60;;;25.30;80.30;;;;;;4061498;29;20723;-65
2022/08/14 06:49:14;;;;;;;6.35;4.45;;;25.70;78.10;;;;;;4061587;29;20028;-66
2022/08/14 06:51:16;;;;;;;7.55;4.50;;;26.00;76.70;;;;;;4059720;29;20035;-66
2022/08/14 06:53:18;;;;;;;5.00;4.28;;;26.40;76.20;;;;;;4061529;29;20048;-66
2022/08/14 06:55:20;;;;;;;5.70;4.15;;;26.90;75.50;;;;;;4059854;29;20043;-66
2022/08/14 06:57:20;;;;;;;4.63;3.97;;;27.20;75.20;;;;;;4060535;29;20144;-67
2022/08/14 06:59:21;;;;;;;4.65;4.07;;;27.60;73.70;;;;;;4063778;29;20346;-66
2022/08/14 07:06:01;;;;;;;5.65;4.25;;;28.70;71.10;;;;;;4060768;29;20032;-66
2022/08/14 07:08:03;;;;;;;5.57;4.22;;;29.00;69.20;;;;;;4043957;29;20053;-67
2022/08/14 07:10:04;;;;;;;4.20;3.72;;;29.20;67.40;;;;;;4062395;29;20443;-68
2022/08/14 07:12:05;;;;;;;6.15;4.63;;;29.40;68.20;;;;;;4064464;29;20032;-67
2022/08/14 07:14:05;;;;;;;6.97;4.15;;;29.40;66.40;;;;;;4061723;29;20533;-67
2022/08/14 07:16:06;;;;;;;5.43;4.03;;;29.50;66.30;;;;;;4063701;29;20048;-67
2022/08/14 07:18:08;;;;;;;4.80;4.15;;;29.30;65.80;;;;;;4063271;29;20072;-67
2022/08/14 07:20:09;;;;;;;4.88;4.10;;;29.40;66.60;;;;;;4061460;29;20488;-67
2022/08/14 07:22:10;;;;;;;3.83;3.42;;;29.50;67.40;;;;;;4061287;29;20043;-67
2022/08/14 07:24:10;;;;;;;4.45;4.05;;;29.60;66.60;;;;;;4073973;29;20063;-67
2022/08/14 07:26:12;;;;;;;4.13;3.58;;;29.60;66.50;;;;;;4065436;29;20040;-66
2022/08/14 07:28:17;;;;;;;5.80;3.90;;;29.50;66.30;;;;;;4061997;29;20115;-67
2022/08/14 07:30:18;;;;;;;7.13;4.28;;;29.60;67.20;;;;;;4063294;29;20131;-67
2022/08/14 07:32:18;;;;;;;7.55;4.40;;;29.50;68.10;;;;;;4062705;29;20071;-67
2022/08/14 07:34:19;;;;;;;7.47;4.18;;;29.60;66.00;;;;;;4063289;29;20043;-66
2022/08/14 07:36:21;;;;;;;4.03;3.72;;;29.60;66.30;;;;;;4048731;29;20036;-67
2022/08/14 07:38:22;;;;;;;4.82;4.05;;;29.70;66.20;;;;;;4064246;29;20091;-67
2022/08/14 07:40:23;;;;;;;7.07;4.50;;;29.70;65.80;;;;;;4064463;29;20711;-67
2022/08/14 07:42:24;;;;;;;4.75;4.15;;;29.70;65.50;;;;;;4063360;29;20119;-67
2022/08/14 07:44:25;;;;;;;6.38;4.30;;;29.50;65.40;;;;;;4060797;29;20100;-67
2022/08/14 07:46:25;;;;;;;5.40;3.85;;;29.50;65.50;;;;;;4061296;29;20036;-67
2022/08/14 07:48:26;;;;;;;6.32;3.95;;;29.60;66.50;;;;;;4058205;29;20028;-67
2022/08/14 07:50:26;;;;;;;4.40;4.00;;;29.70;65.90;;;;;;4059657;29;20176;-67
2022/08/14 07:52:28;;;;;;;7.25;4.43;;;29.70;65.70;;;;;;4061343;29;20060;-67
2022/08/14 07:54:30;;;;;;;5.90;4.15;;;29.70;65.40;;;;;;4063631;29;20059;-67
2022/08/14 07:56:30;;;;;;;4.70;4.20;;;29.80;67.10;;;;;;4064105;29;20234;-67
2022/08/14 07:58:32;;;;;;;7.80;4.60;;;29.80;66.40;;;;;;4063550;29;20253;-67
2022/08/14 08:00:32;;;;;;;4.20;3.80;;;29.80;65.10;;;;;;4064097;29;20578;-67
2022/08/14 08:02:34;;;;;;;5.53;4.30;;;29.80;65.80;;;;;;4062112;29;20036;-67
2022/08/14 08:04:35;;;;;;;4.85;4.35;;;29.90;66.20;;;;;;4055998;29;20044;-67
2022/08/14 08:06:37;;;;;;;5.10;4.03;;;29.90;65.40;;;;;;4058830;29;20032;-66
2022/08/14 08:08:38;;;;;;;4.70;3.78;;;29.80;65.50;;;;;;4062848;29;20055;-67
2022/08/14 08:10:41;;;;;;;4.40;4.00;;;29.90;66.40;;;;;;4065812;29;20399;-66
2022/08/14 08:12:42;;;;;;;5.82;4.38;;;30.00;65.60;;;;;;4063096;29;20055;-67
2022/08/14 08:14:43;;;;;;;6.15;4.55;;;30.00;65.30;;;;;;4064253;29;20168;-67
2022/08/14 08:16:47;;;;;;;5.43;4.03;;;30.00;64.80;;;;;;4066427;29;20119;-66
2022/08/14 08:18:49;;;;;;;6.38;4.70;;;30.00;64.70;;;;;;4064348;29;20068;-67
2022/08/14 08:20:52;;;;;;;5.67;4.47;;;30.10;66.20;;;;;;4063147;29;20040;-67
2022/08/14 08:22:55;;;;;;;5.55;4.18;;;29.90;65.00;;;;;;4062512;29;20048;-67
2022/08/14 08:24:56;;;;;;;5.00;4.50;;;30.00;65.60;;;;;;4064315;29;20043;-67
2022/08/14 08:26:56;;;;;;;5.30;4.30;;;30.00;64.60;;;;;;4064213;29;20424;-67
2022/08/14 08:28:58;;;;;;;5.65;4.30;;;30.20;64.40;;;;;;4068364;29;20032;-67
2022/08/14 08:31:04;;;;;;;4.97;4.30;;;30.20;64.80;;;;;;4065438;29;20095;-67
2022/08/14 08:33:09;;;;;;;6.45;4.40;;;30.30;64.40;;;;;;4064222;29;20063;-68
2022/08/14 08:35:17;;;;;;;6.45;4.70;;;30.30;64.00;;;;;;4065748;29;20040;-67
2022/08/14 08:37:17;;;;;;;8.90;4.88;;;30.40;64.10;;;;;;4065917;29;20028;-67
2022/08/14 08:39:18;;;;;;;6.13;4.28;;;30.40;64.20;;;;;;4065024;29;20376;-67
2022/08/14 08:41:19;;;;;;;5.55;4.70;;;30.50;63.80;;;;;;4063676;29;20040;-67
2022/08/14 08:43:27;;;;;;;5.53;4.38;;;30.60;63.00;;;;;;4062149;29;20559;-67
2022/08/14 08:45:28;;;;;;;4.85;4.32;;;30.60;63.20;;;;;;4063879;29;20074;-67
2022/08/14 08:47:47;;;;;;;7.38;5.45;;;30.70;63.60;;;;;;4063478;29;20763;-67
2022/08/14 08:49:48;;;;;;;6.82;5.10;;;30.70;63.80;;;;;;4062835;29;20119;-67
2022/08/14 08:51:49;;;;;;;5.47;4.68;;;30.80;63.70;;;;;;4049807;29;20029;-66
2022/08/14 08:54:12;;;;;;;6.95;5.30;;;30.80;63.30;;;;;;4068079;29;20048;-67
2022/08/14 08:56:12;;;;;;;8.37;5.30;;;30.80;64.70;;;;;;4045166;29;20024;-67
2022/08/14 08:58:18;;;;;;;6.93;5.15;;;30.80;64.10;;;;;;4048461;29;20621;-66
2022/08/14 09:00:18;;;;;;;6.07;4.60;;;30.70;63.50;;;;;;4050297;29;20566;-67
2022/08/14 09:02:19;;;;;;;6.38;4.45;;;30.90;63.00;;;;;;4049840;29;20083;-67
2022/08/14 09:04:20;;;;;;;5.95;4.75;;;30.90;62.70;;;;;;4050523;29;20072;-67
2022/08/14 09:06:20;;;;;;;5.75;4.20;;;31.00;63.30;;;;;;4056478;29;20123;-67
2022/08/14 09:08:30;;;;;;;5.82;4.07;;;30.90;62.70;;;;;;4052119;29;20052;-67
2022/08/14 09:10:31;;;;;;;4.50;3.92;;;31.00;62.90;;;;;;4050902;29;20128;-67
2022/08/14 09:12:33;;;;;;;4.63;4.15;;;31.00;64.00;;;;;;4049982;29;20036;-66
2022/08/14 09:14:35;;;;;;;6.78;4.10;;;31.10;63.20;;;;;;4050765;29;20040;-67
2022/08/14 09:16:35;;;;;;;4.75;4.25;;;31.10;62.60;;;;;;4051700;29;20381;-67
2022/08/14 09:18:39;;;;;;;5.03;3.90;;;30.90;62.80;;;;;;4050548;29;20096;-67
2022/08/14 09:20:42;;;;;;;4.63;3.88;;;31.00;63.10;;;;;;4049963;29;20056;-66
2022/08/14 09:22:44;;;;;;;8.77;4.57;;;31.10;62.40;;;;;;4049987;29;20039;-66
2022/08/14 09:24:46;;;;;;;6.25;4.57;;;31.10;61.50;;;;;;4053206;29;20037;-67
2022/08/14 09:26:47;;;;;;;4.20;3.75;;;31.20;62.10;;;;;;4049745;29;20048;-67
2022/08/14 09:28:47;;;;;;;4.65;3.85;;;31.30;61.90;;;;;;4052617;29;20484;-67
2022/08/14 09:30:53;;;;;;;4.97;4.22;;;31.30;62.00;;;;;;4052007;29;20424;-67
2022/08/14 09:33:09;;;;;;;9.60;4.40;;;31.40;62.70;;;;;;4050291;29;20036;-67
2022/08/14 09:35:23;;;;;;;4.90;4.00;;;31.30;59.80;;;;;;4050549;29;20032;-68
2022/08/14 09:37:39;;;;;;;4.05;3.65;;;31.30;59.80;;;;;;4065976;29;20040;-66
2022/08/14 09:39:53;;;;;;;4.25;3.70;;;31.20;60.00;;;;;;4049225;29;20032;-66
2022/08/14 09:42:06;;;;;;;3.50;3.20;;;31.20;59.40;;;;;;4060818;29;20036;-67
2022/08/14 09:44:14;;;;;;;;;;;31.30;60.00;;;;;;4067991;29;20029;-67
2022/08/14 09:46:15;;;;;;;4.15;3.42;;;31.30;59.20;;;;;;4064767;29;19966;-67
2022/08/14 09:48:18;;;;;;;4.00;3.45;;;31.20;59.80;;;;;;4065855;29;20040;-66
2022/08/14 09:50:31;;;;;;;4.43;3.95;;;31.20;58.90;;;;;;4047371;29;20060;-66
2022/08/14 09:52:33;;;;;;;4.05;3.65;;;31.20;59.80;;;;;;4065412;29;20107;-67
2022/08/14 09:54:44;;;;;;;4.10;3.50;;;31.10;59.50;;;;;;4068104;29;20045;-67
2022/08/14 09:56:46;;;;;;;4.93;3.63;;;31.10;59.90;;;;;;4063174;29;20099;-66
2022/08/14 09:58:47;;;;;;;5.68;3.67;;;31.20;60.10;;;;;;4064951;29;20143;-67
2022/08/14 10:00:52;;;;;;;4.63;3.35;;;31.30;62.30;;;;;;4066082;29;20488;-67
2022/08/14 10:03:01;;;;;;;4.10;3.70;;;31.40;59.40;;;;;;4065209;29;20503;-66
2022/08/14 10:05:09;;;;;;;4.22;3.58;;;31.40;60.00;;;;;;4067008;29;20044;-68
2022/08/14 10:07:09;;;;;;;4.75;3.67;;;31.40;60.00;;;;;;4064587;29;20052;-67
2022/08/14 10:09:10;;;;;;;9.10;3.80;;;31.40;58.20;;;;;;4072708;29;20035;-66
2022/08/14 10:11:22;;;;;;;6.00;3.72;;;31.60;58.40;;;;;;4064590;29;20052;-66
2022/08/14 10:13:24;;;;;;;3.35;3.05;;;31.30;57.00;;;;;;4067582;29;20071;-67
2022/08/14 10:15:27;;;;;;;5.85;3.53;;;31.50;58.10;;;;;;4064103;29;20099;-67
2022/08/14 10:17:28;;;;;;;3.10;2.80;;;31.50;57.40;;;;;;4066849;29;20075;-67
2022/08/14 10:19:29;;;;;;;7.85;3.80;;;31.60;57.10;;;;;;4067659;29;20032;-66
2022/08/14 10:21:29;;;;;;;4.68;2.85;;;31.60;56.60;;;;;;4064070;29;20025;-67
2022/08/14 10:23:48;;;;;;;3.70;2.88;;;31.60;54.80;;;;;;4068407;29;20489;-67
2022/08/14 10:25:52;;;;;;;4.07;2.53;;;31.60;54.40;;;;;;4065153;29;20028;-67
2022/08/14 10:27:57;;;;;;;3.40;3.10;;;31.70;55.10;;;;;;4063393;29;20028;-68
2022/08/14 10:29:59;;;;;;;3.53;2.60;;;31.70;54.90;;;;;;4067036;29;20039;-67
2022/08/14 10:32:00;;;;;;;3.58;3.13;;;31.80;54.80;;;;;;4064541;29;20068;-66
2022/08/14 10:34:06;;;;;;;3.20;2.80;;;31.80;54.80;;;;;;4065092;29;20052;-67
2022/08/14 10:36:07;;;;;;;4.32;2.90;;;31.90;54.60;;;;;;4063190;29;20499;-67
2022/08/14 10:38:09;;;;;;;5.32;2.22;;;31.90;54.50;;;;;;4064071;29;20032;-67
2022/08/14 10:40:10;;;;;;;2.72;2.47;;;31.90;54.80;;;;;;4067132;29;20443;-68
2022/08/14 10:42:13;;;;;;;3.72;2.88;;;32.00;53.50;;;;;;4066000;29;20055;-67
2022/08/14 10:44:17;;;;;;;3.22;2.90;;;32.00;53.90;;;;;;4064967;29;20043;-67
2022/08/14 10:46:18;;;;;;;4.45;2.83;;;32.10;53.60;;;;;;4063481;29;20509;-67
2022/08/14 10:48:19;;;;;;;3.72;2.97;;;32.10;56.00;;;;;;4047347;29;20041;-67
2022/08/14 10:50:34;;;;;;;3.17;2.97;;;32.10;53.30;;;;;;4066330;29;20032;-67
2022/08/14 10:52:36;;;;;;;3.72;3.00;;;32.10;53.80;;;;;;4060740;29;20398;-66
2022/08/14 10:54:43;;;;;;;3.28;2.60;;;32.10;53.50;;;;;;4068562;29;20131;-66
2022/08/14 10:56:44;;;;;;;3.45;3.15;;;32.20;53.70;;;;;;4063466;29;20032;-67